Time;durP1;ratioP1;P1;durP2;ratioP2;P2;SDS_P1;SDS_P2;PMS_P1;PMS_P2;Temp;Humidity;BMP_temperature;BMP_pressure;BME280_temperature;BME280_humidity;BME280_pressure;Samples;Min_cycle;Max_cycle;Signal;HPM_P1;HPM_P2
2021/04/17 00:01:59;;;;;;;32.47;22.23;;;5.30;77.20;;;4.38;63.28;95222.78;5025865;28;20223;-87
2021/04/17 00:04:29;;;;;;;31.58;21.48;;;5.20;77.00;;;4.40;63.48;95226.06;5015716;28;20288;-87
2021/04/17 00:06:56;;;;;;;33.33;22.50;;;5.30;77.10;;;4.42;63.53;95231.91;5021852;28;20682;-86
2021/04/17 00:09:27;;;;;;;33.35;23.17;;;5.30;77.10;;;4.42;63.48;95221.50;5019651;28;20345;-86
2021/04/17 00:11:58;;;;;;;36.10;25.73;;;5.30;77.10;;;4.38;64.33;95223.63;5041390;28;20220;-86
2021/04/17 00:14:30;;;;;;;33.33;23.30;;;5.30;77.40;;;4.39;63.85;95222.63;5019667;28;20639;-86
2021/04/17 00:17:12;;;;;;;33.08;23.95;;;5.30;77.30;;;4.40;63.80;95229.47;5035096;28;20228;-86
2021/04/17 00:19:39;;;;;;;33.65;23.67;;;5.30;77.30;;;4.40;64.08;95229.47;5036806;28;20205;-86
2021/04/17 00:22:06;;;;;;;32.50;23.02;;;5.30;77.30;;;4.42;63.77;95230.13;5019255;28;20224;-86
2021/04/17 00:24:33;;;;;;;33.08;23.73;;;5.30;77.30;;;4.42;63.55;95227.53;5020500;28;20284;-86
2021/04/17 00:27:02;;;;;;;33.17;23.23;;;5.30;77.30;;;4.44;63.95;95219.59;5020762;28;20255;-86
2021/04/17 00:29:30;;;;;;;34.72;24.15;;;5.40;77.40;;;4.47;63.85;95221.91;5035891;28;20243;-86
2021/04/17 00:31:58;;;;;;;34.40;24.02;;;5.30;77.40;;;4.46;63.86;95221.06;5048788;28;20217;-86
2021/04/17 00:34:26;;;;;;;32.88;24.48;;;5.40;77.40;;;4.47;64.01;95219.31;5027350;28;20201;-86
2021/04/17 00:36:53;;;;;;;32.97;23.42;;;5.30;77.40;;;4.48;63.74;95208.78;5029388;28;20251;-86
2021/04/17 00:39:20;;;;;;;32.90;23.60;;;5.30;77.30;;;4.52;63.45;95208.47;5036765;28;20203;-86
2021/04/17 00:41:46;;;;;;;36.10;25.83;;;5.40;77.40;;;4.53;64.12;95212.69;5020078;28;20220;-86
2021/04/17 00:44:14;;;;;;;33.55;24.48;;;5.40;77.40;;;4.53;63.31;95210.94;5051958;28;20211;-85
2021/04/17 00:46:41;;;;;;;30.60;22.70;;;5.40;77.30;;;4.59;63.16;95212.09;5019207;28;20232;-86
2021/04/17 00:49:09;;;;;;;33.10;23.90;;;5.40;77.30;;;4.62;63.34;95219.63;5008187;28;20201;-85
2021/04/17 00:51:36;;;;;;;30.30;22.40;;;5.50;77.30;;;4.60;63.02;95206.78;5034984;28;20224;-85
2021/04/17 00:54:05;;;;;;;32.35;22.67;;;5.40;77.20;;;4.67;63.04;95217.41;5019102;28;20199;-86
2021/04/17 00:56:33;;;;;;;30.98;21.42;;;5.40;77.20;;;4.69;62.83;95202.47;5038005;28;20224;-86
2021/04/17 00:59:00;;;;;;;30.50;22.75;;;5.50;77.20;;;4.67;62.57;95201.00;5036852;28;20200;-86
2021/04/17 01:01:28;;;;;;;29.52;22.15;;;5.50;77.10;;;4.70;62.70;95201.53;5055031;28;20181;-87
2021/04/17 01:04:04;;;;;;;33.20;24.98;;;5.50;77.00;;;4.72;62.56;95196.16;5037811;28;20675;-86
2021/04/17 01:06:52;;;;;;;33.17;23.42;;;5.50;77.00;;;4.74;62.71;95197.66;5038171;28;20235;-86
2021/04/17 01:09:40;;;;;;;31.45;22.23;;;5.50;77.00;;;4.75;62.55;95198.47;5049488;28;20207;-86
2021/04/17 01:12:12;;;;;;;34.90;24.35;;;5.60;77.00;;;4.76;62.61;95192.28;5018510;28;20648;-86
2021/04/17 01:14:39;;;;;;;32.83;24.15;;;5.60;77.00;;;4.77;62.72;95196.53;5019827;28;20197;-87
2021/04/17 01:17:08;;;;;;;32.78;23.23;;;5.60;76.90;;;4.79;62.20;95189.41;5033566;28;20307;-86
2021/04/17 01:19:40;;;;;;;34.60;24.23;;;5.60;76.90;;;4.80;62.39;95194.44;5034975;28;20255;-86
2021/04/17 01:22:14;;;;;;;30.38;22.50;;;5.60;77.00;;;4.83;61.80;95188.13;5054686;28;20213;-86
2021/04/17 01:24:45;;;;;;;29.35;21.70;;;5.60;76.90;;;4.87;61.99;95188.66;5055503;28;20189;-86
2021/04/17 01:27:12;;;;;;;32.05;23.05;;;5.60;77.00;;;4.87;62.02;95192.09;5027093;28;20224;-86
2021/04/17 01:29:43;;;;;;;31.73;22.92;;;5.70;76.90;;;4.89;61.99;95192.75;5034618;28;20197;-87
2021/04/17 01:32:13;;;;;;;29.20;20.73;;;5.70;76.90;;;4.92;61.95;95182.06;5019389;28;20221;-86
2021/04/17 01:34:42;;;;;;;34.22;23.95;;;5.60;76.80;;;4.92;61.83;95178.63;5037390;28;20196;-85
2021/04/17 01:37:10;;;;;;;35.50;24.48;;;5.70;76.90;;;4.92;62.05;95181.22;5037887;28;20322;-86
2021/04/17 01:39:39;;;;;;;33.13;23.83;;;5.70;76.80;;;4.90;61.87;95181.38;5036488;28;20271;-86
2021/04/17 01:42:10;;;;;;;33.00;23.02;;;5.70;76.70;;;4.88;61.81;95172.09;5037808;28;20701;-86
2021/04/17 01:44:41;;;;;;;28.92;21.60;;;5.70;76.80;;;4.88;61.75;95169.50;5043153;28;20196;-86
2021/04/17 01:47:15;;;;;;;33.28;23.65;;;5.70;76.80;;;4.90;61.90;95175.38;5033414;28;20221;-87
2021/04/17 01:49:48;;;;;;;35.53;24.48;;;5.70;76.70;;;4.89;61.92;95173.75;5034398;28;20406;-87
2021/04/17 01:52:20;;;;;;;31.02;22.98;;;5.70;76.70;;;4.91;61.87;95174.41;5037515;28;20318;-85
2021/04/17 01:54:52;;;;;;;31.25;22.88;;;5.70;76.70;;;4.88;62.13;95174.69;5054157;28;20204;-86
2021/04/17 01:57:25;;;;;;;31.90;22.77;;;5.70;76.70;;;4.90;61.68;95176.19;5006076;28;20232;-86
2021/04/17 01:59:54;;;;;;;33.45;23.85;;;5.70;76.70;;;4.92;61.83;95176.84;5023921;28;20192;-86
2021/04/17 02:02:21;;;;;;;35.40;25.20;;;5.70;76.60;;;4.91;62.01;95177.00;5015055;28;20228;-86
2021/04/17 02:04:48;;;;;;;31.17;22.77;;;5.70;76.70;;;4.90;61.86;95167.59;5030636;28;20200;-86
2021/04/17 02:07:15;;;;;;;36.75;25.33;;;5.70;76.70;;;4.90;61.87;95164.97;5053146;28;20217;-87
2021/04/17 02:09:42;;;;;;;30.10;21.88;;;5.70;76.70;;;4.90;61.67;95165.78;5037539;28;20195;-87
2021/04/17 02:12:09;;;;;;;34.42;24.48;;;5.70;76.70;;;4.90;62.40;95164.97;5034938;28;20222;-87
2021/04/17 02:14:36;;;;;;;34.10;24.92;;;5.80;76.80;;;4.85;62.09;95147.22;5022474;28;20258;-87
2021/04/17 02:17:06;;;;;;;33.45;24.95;;;5.70;76.80;;;4.87;62.26;95157.47;5038189;28;20344;-87
2021/04/17 02:20:03;;;;;;;31.75;22.63;;;5.70;76.80;;;4.84;62.58;95170.78;5057767;28;20234;-86
2021/04/17 02:22:32;;;;;;;33.92;25.70;;;5.70;76.80;;;4.79;62.54;95148.63;5036943;28;20723;-87
2021/04/17 02:25:00;;;;;;;34.85;25.02;;;5.70;76.80;;;4.78;62.39;95154.78;5017445;28;20291;-87
2021/04/17 02:27:27;;;;;;;35.42;25.40;;;5.70;76.90;;;4.80;62.54;95152.06;5024263;28;20221;-87
2021/04/17 02:29:55;;;;;;;37.17;25.90;;;5.70;76.90;;;4.79;62.97;95155.63;5033404;28;20197;-87
2021/04/17 02:32:23;;;;;;;36.03;25.40;;;5.70;77.00;;;4.77;62.95;95153.19;5017037;28;20255;-87
2021/04/17 02:34:51;;;;;;;33.03;23.63;;;5.70;77.00;;;4.76;63.01;95151.56;5037741;28;20197;-87
2021/04/17 02:37:19;;;;;;;34.78;24.20;;;5.60;77.00;;;4.78;62.70;95149.59;5033211;28;20651;-85
2021/04/17 02:39:45;;;;;;;32.35;22.20;;;5.60;77.00;;;4.80;62.39;95147.69;5049849;28;20208;-86
2021/04/17 02:42:13;;;;;;;32.13;22.33;;;5.60;77.00;;;4.84;62.42;95142.19;5033324;28;20696;-86
2021/04/17 02:44:40;;;;;;;30.05;22.25;;;5.60;77.00;;;4.85;62.29;95151.63;5002078;28;20713;-87
2021/04/17 02:47:07;;;;;;;30.17;22.33;;;5.70;77.10;;;4.86;62.00;95153.22;5033204;28;20220;-86
2021/04/17 02:49:36;;;;;;;33.22;25.02;;;5.70;77.00;;;4.79;62.70;95143.44;5033511;28;20196;-86
2021/04/17 02:52:02;;;;;;;30.20;22.92;;;5.70;77.10;;;4.83;62.26;95143.16;5000520;28;20236;-86
2021/04/17 02:54:30;;;;;;;33.78;25.08;;;5.60;77.00;;;4.83;62.60;95141.34;5035766;28;20249;-86
2021/04/17 02:56:57;;;;;;;32.00;24.10;;;5.70;77.10;;;4.77;62.66;95129.81;5042539;28;20282;-86
2021/04/17 02:59:24;;;;;;;30.40;23.08;;;5.70;77.10;;;4.80;62.83;95133.88;5050439;28;20223;-86
2021/04/17 03:01:51;;;;;;;31.00;22.42;;;5.70;77.10;;;4.83;62.82;95135.34;5052834;28;20220;-87
2021/04/17 03:04:18;;;;;;;34.15;24.40;;;5.70;77.10;;;4.82;62.86;95142.31;5052029;28;20192;-87
2021/04/17 03:06:45;;;;;;;33.80;23.95;;;5.70;77.20;;;4.83;63.00;95136.16;5018521;28;20216;-86
2021/04/17 03:09:12;;;;;;;29.13;22.02;;;5.70;77.10;;;4.80;62.91;95126.88;5033006;28;20189;-87
2021/04/17 03:11:39;;;;;;;30.58;22.33;;;5.70;77.10;;;4.82;62.78;95131.94;5032912;28;20216;-87
2021/04/17 03:14:06;;;;;;;28.58;20.98;;;5.60;77.10;;;4.83;62.63;95128.38;5016338;28;20196;-87
2021/04/17 03:16:33;;;;;;;31.48;23.45;;;5.70;77.10;;;4.80;62.93;95129.50;5032715;28;20213;-87
2021/04/17 03:19:00;;;;;;;32.50;23.33;;;5.70;77.10;;;4.81;62.74;95131.13;5042876;28;20249;-87
2021/04/17 03:21:27;;;;;;;30.42;21.90;;;5.70;77.10;;;4.83;62.69;95130.16;5045065;28;20191;-85
2021/04/17 03:23:54;;;;;;;30.02;21.20;;;5.70;77.20;;;4.86;62.35;95127.25;5050309;28;20263;-86
2021/04/17 03:26:22;;;;;;;29.23;20.98;;;5.70;77.10;;;4.86;62.50;95129.84;5057907;28;20200;-85
2021/04/17 03:28:49;;;;;;;32.47;23.48;;;5.70;77.10;;;4.78;62.56;95115.81;5042304;28;20607;-86
2021/04/17 03:31:16;;;;;;;30.58;22.15;;;5.70;77.10;;;4.81;62.38;95118.13;5032238;28;20192;-86
2021/04/17 03:33:43;;;;;;;28.90;22.58;;;5.70;77.10;;;4.84;62.59;95126.59;5045517;28;20235;-87
2021/04/17 03:36:11;;;;;;;33.25;23.70;;;5.70;77.10;;;4.81;62.89;95123.34;5031807;28;20217;-86
2021/04/17 03:38:37;;;;;;;29.00;21.52;;;5.70;77.20;;;4.84;62.48;95113.59;4997826;28;20217;-86
2021/04/17 03:41:04;;;;;;;29.02;21.25;;;5.70;77.10;;;4.83;62.57;95109.38;5029265;28;20208;-86
2021/04/17 03:43:31;;;;;;;28.45;21.83;;;5.70;77.10;;;4.83;62.70;95112.78;5014675;28;20208;-87
2021/04/17 03:45:58;;;;;;;30.10;22.85;;;5.70;77.20;;;4.83;62.87;95119.78;5030597;28;20213;-86
2021/04/17 03:48:25;;;;;;;30.52;23.45;;;5.70;77.20;;;4.79;63.13;95121.84;5030559;28;20227;-86
2021/04/17 03:50:52;;;;;;;27.02;20.25;;;5.70;77.30;;;4.75;62.87;95110.13;5016832;28;20226;-86
2021/04/17 03:53:18;;;;;;;33.47;22.58;;;5.70;77.20;;;4.77;62.88;95118.56;5015005;28;20311;-86
2021/04/17 03:55:45;;;;;;;26.88;20.13;;;5.60;77.20;;;4.78;62.73;95121.00;5037493;28;20206;-86
2021/04/17 03:58:11;;;;;;;28.30;19.50;;;5.70;77.20;;;4.80;62.33;95121.69;5028073;28;20220;-86
2021/04/17 04:00:38;;;;;;;23.70;17.98;;;5.60;77.10;;;4.84;62.32;95122.22;5025366;28;20215;-86
2021/04/17 04:03:05;;;;;;;28.00;18.90;;;5.60;77.10;;;4.86;62.77;95129.84;5014178;28;20732;-86
2021/04/17 04:05:32;;;;;;;26.08;19.35;;;5.70;77.20;;;4.84;62.32;95122.22;4997844;28;20196;-87
2021/04/17 04:07:59;;;;;;;24.88;18.25;;;5.70;77.10;;;4.87;62.30;95129.72;5003486;28;20243;-86
2021/04/17 04:10:26;;;;;;;25.05;18.02;;;5.70;77.10;;;4.87;62.07;95119.31;5009591;28;20206;-86
2021/04/17 04:12:52;;;;;;;24.73;18.17;;;5.70;77.10;;;4.88;62.35;95126.16;5067030;28;20220;-86
2021/04/17 04:15:19;;;;;;;26.17;18.38;;;5.70;77.10;;;4.87;62.38;95124.53;5028537;28;20205;-86
2021/04/17 04:17:46;;;;;;;25.10;18.70;;;5.70;77.10;;;4.87;62.30;95123.69;5032100;28;20224;-83
2021/04/17 04:20:14;;;;;;;27.75;19.48;;;5.70;77.00;;;4.86;61.84;95119.44;5033324;28;20238;-84
2021/04/17 04:22:41;;;;;;;25.65;18.80;;;5.70;77.10;;;4.89;61.99;95126.97;5037006;28;20205;-83
2021/04/17 04:25:10;;;;;;;21.73;16.30;;;5.70;77.10;;;4.90;62.17;95126.81;5048656;28;20196;-83
2021/04/17 04:27:38;;;;;;;25.67;18.52;;;5.70;77.10;;;4.92;62.09;95127.47;5035792;28;20298;-83
2021/04/17 04:30:09;;;;;;;24.40;17.70;;;5.70;77.10;;;4.93;62.13;95134.31;5030888;28;20212;-82
2021/04/17 04:32:37;;;;;;;24.10;17.05;;;5.70;77.90;;;4.94;61.81;95129.91;5033192;28;20263;-83
2021/04/17 04:35:06;;;;;;;23.73;17.67;;;5.70;77.00;;;4.96;62.32;95130.59;5033806;28;20195;-83
2021/04/17 04:37:32;;;;;;;22.45;17.13;;;5.70;77.00;;;4.96;62.04;95128.00;5051021;28;20256;-83
2021/04/17 04:39:59;;;;;;;24.65;18.48;;;5.80;77.00;;;4.88;62.25;95123.56;5051025;28;20655;-83
2021/04/17 04:42:26;;;;;;;27.35;17.98;;;5.70;77.00;;;4.93;62.43;95120.47;5031090;28;20695;-83
2021/04/17 04:44:52;;;;;;;25.50;18.70;;;5.70;77.00;;;4.95;62.29;95126.34;5034479;28;20295;-83
2021/04/17 04:47:19;;;;;;;23.85;17.13;;;5.80;77.10;;;4.97;62.24;95129.63;5034584;28;20701;-83
2021/04/17 04:49:47;;;;;;;23.48;17.30;;;5.80;77.00;;;5.00;62.34;95123.31;5031784;28;20201;-83
2021/04/17 04:52:14;;;;;;;25.13;17.92;;;5.80;77.10;;;5.00;62.32;95131.91;5032460;28;20209;-83
2021/04/17 04:54:41;;;;;;;25.88;18.77;;;5.80;77.00;;;4.99;62.43;95126.88;5018026;28;20562;-83
2021/04/17 04:57:08;;;;;;;24.13;17.50;;;5.80;77.10;;;5.01;62.40;95130.13;5034659;28;20720;-84
2021/04/17 04:59:35;;;;;;;23.15;16.95;;;5.80;77.10;;;5.03;62.34;95118.63;5023367;28;20280;-84
2021/04/17 05:02:03;;;;;;;21.35;15.90;;;5.80;77.10;;;5.01;62.15;95117.94;5029803;28;20228;-83
2021/04/17 05:04:30;;;;;;;26.00;18.70;;;5.80;77.10;;;5.06;62.22;95122.69;5000706;28;20193;-84
2021/04/17 05:06:58;;;;;;;25.30;18.40;;;5.90;77.20;;;5.09;62.13;95124.97;5013466;28;20212;-83
2021/04/17 05:09:25;;;;;;;24.45;19.00;;;5.80;77.10;;;5.08;62.11;95124.16;5016285;28;20220;-84
2021/04/17 05:11:52;;;;;;;24.50;17.73;;;5.90;77.20;;;5.10;62.01;95119.63;5033586;28;20212;-85
2021/04/17 05:14:18;;;;;;;22.45;16.75;;;5.90;77.10;;;5.13;62.16;95123.72;5001490;28;20250;-84
2021/04/17 05:16:46;;;;;;;23.58;16.30;;;5.90;77.20;;;5.18;62.06;95120.66;5045327;28;20234;-83
2021/04/17 05:19:13;;;;;;;26.15;18.02;;;5.90;77.20;;;5.21;62.12;95130.75;5033241;28;20205;-83
2021/04/17 05:21:41;;;;;;;22.85;17.02;;;5.90;77.20;;;5.23;62.14;95127.03;5040395;28;20217;-83
2021/04/17 05:24:08;;;;;;;22.25;16.83;;;6.00;77.20;;;5.27;62.20;95127.53;5017490;28;20189;-84
2021/04/17 05:26:35;;;;;;;22.73;17.60;;;6.00;77.20;;;5.27;61.88;95125.75;5046776;28;20229;-84
2021/04/17 05:29:03;;;;;;;24.00;16.65;;;6.00;77.20;;;5.32;61.74;95127.88;5029807;28;20192;-83
2021/04/17 05:31:30;;;;;;;24.25;17.80;;;6.00;77.10;;;5.37;61.81;95127.41;5047017;28;20195;-83
2021/04/17 05:33:57;;;;;;;21.20;15.55;;;6.00;77.20;;;5.42;61.87;95123.41;5034567;28;20200;-84
2021/04/17 05:36:23;;;;;;;22.88;16.55;;;6.10;77.30;;;5.45;61.61;95124.88;5033670;28;20224;-82
2021/04/17 05:38:53;;;;;;;23.90;15.75;;;6.10;77.30;;;5.49;61.33;95126.19;5031898;28;20201;-85
2021/04/17 05:41:25;;;;;;;20.90;14.98;;;6.10;77.20;;;5.52;61.56;95127.69;5019525;28;20306;-83
2021/04/17 05:43:53;;;;;;;23.23;16.10;;;6.20;77.20;;;5.54;61.40;95123.97;5047878;28;20215;-83
2021/04/17 05:46:20;;;;;;;24.02;16.17;;;6.20;77.10;;;5.58;61.53;95132.28;5016957;28;20258;-83
2021/04/17 05:48:46;;;;;;;23.05;17.25;;;6.20;77.10;;;5.58;61.49;95124.47;5035508;28;20634;-84
2021/04/17 05:51:14;;;;;;;25.35;18.38;;;6.20;77.00;;;5.58;61.53;95127.88;5034095;28;20200;-82
2021/04/17 05:53:41;;;;;;;23.67;17.15;;;6.30;77.00;;;5.56;61.46;95116.00;5046588;28;20193;-83
2021/04/17 05:56:08;;;;;;;20.77;15.85;;;6.30;77.00;;;5.63;61.55;95126.56;5023089;28;20193;-82
2021/04/17 05:58:35;;;;;;;23.27;16.95;;;6.30;77.00;;;5.65;61.57;95125.47;5026263;28;20218;-82
2021/04/17 06:01:03;;;;;;;22.90;16.92;;;6.30;77.00;;;5.66;61.59;95118.47;5034861;28;20651;-83
2021/04/17 06:03:30;;;;;;;19.80;15.80;;;6.40;77.10;;;5.72;61.21;95118.66;5037313;28;20221;-82
2021/04/17 06:05:57;;;;;;;23.77;16.75;;;6.40;77.10;;;5.77;61.27;95123.38;5022162;28;20662;-83
2021/04/17 06:08:23;;;;;;;29.92;19.40;;;6.40;77.10;;;5.80;61.50;95119.66;5031561;28;20702;-86
2021/04/17 06:10:50;;;;;;;25.15;17.77;;;6.40;77.10;;;5.81;61.34;95127.31;5048834;28;20204;-84
2021/04/17 06:13:17;;;;;;;25.27;17.25;;;6.50;77.00;;;5.84;61.39;95116.59;5034185;28;20220;-84
2021/04/17 06:15:44;;;;;;;22.38;16.52;;;6.50;77.00;;;5.84;61.11;95121.00;5033480;28;20212;-84
2021/04/17 06:18:10;;;;;;;21.45;16.77;;;6.50;77.00;;;5.91;60.70;95129.81;5027614;28;20278;-83
2021/04/17 06:20:37;;;;;;;24.92;18.65;;;6.50;76.90;;;5.91;61.19;95127.19;5032256;28;20192;-84
2021/04/17 06:23:04;;;;;;;25.73;17.83;;;6.60;76.90;;;5.92;61.05;95134.84;5056944;28;20215;-83
2021/04/17 06:25:31;;;;;;;25.67;18.83;;;6.60;76.80;;;5.86;61.08;95117.25;5018671;28;20219;-85
2021/04/17 06:27:58;;;;;;;22.15;16.73;;;6.60;76.80;;;5.95;61.00;95132.91;5022847;28;20714;-84
2021/04/17 06:30:25;;;;;;;20.50;15.45;;;6.70;76.90;;;6.01;61.41;95127.91;5026844;28;20193;-83
2021/04/17 06:32:53;;;;;;;21.92;16.42;;;6.70;76.90;;;6.06;61.14;95133.44;5016681;28;20229;-85
2021/04/17 06:35:19;;;;;;;25.55;18.83;;;6.70;77.00;;;6.09;61.04;95129.69;5037337;28;20201;-84
2021/04/17 06:37:47;;;;;;;24.05;18.33;;;6.70;76.80;;;6.09;61.24;95132.31;5038241;28;20231;-85
2021/04/17 06:40:14;;;;;;;23.42;17.02;;;6.70;76.70;;;6.08;61.04;95130.69;5018343;28;20205;-84
2021/04/17 06:42:45;;;;;;;21.77;15.40;;;6.80;76.70;;;6.17;60.87;95136.75;5019240;28;20208;-84
2021/04/17 06:45:14;;;;;;;20.15;15.48;;;6.80;76.80;;;6.21;60.87;95130.22;5024756;28;20572;-84
2021/04/17 06:47:41;;;;;;;22.92;16.30;;;6.80;76.80;;;6.22;60.85;95135.28;5052607;28;20216;-84
2021/04/17 06:50:09;;;;;;;21.10;16.27;;;6.80;76.70;;;6.27;60.72;95136.59;5036037;28;20197;-84
2021/04/17 06:52:41;;;;;;;21.80;15.48;;;6.90;76.70;;;6.30;60.45;95131.91;5008346;28;20251;-84
2021/04/17 06:55:10;;;;;;;21.95;15.50;;;6.90;76.60;;;6.29;60.55;95132.88;5043667;28;20201;-85
2021/04/17 06:57:38;;;;;;;22.00;16.67;;;6.90;76.60;;;6.33;60.42;95134.16;5038264;28;20232;-84
2021/04/17 07:00:09;;;;;;;22.27;17.27;;;6.90;76.50;;;6.33;60.24;95141.19;5004011;28;20654;-84
2021/04/17 07:02:36;;;;;;;22.38;16.33;;;7.00;76.40;;;6.36;60.65;95130.41;5047371;28;20782;-84
2021/04/17 07:05:05;;;;;;;22.13;17.33;;;7.00;76.50;;;6.34;60.37;95127.19;5037455;28;20204;-84
2021/04/17 07:07:33;;;;;;;19.13;15.32;;;7.00;76.50;;;6.45;60.55;95139.09;5022210;28;20303;-85
2021/04/17 07:10:00;;;;;;;18.65;14.43;;;7.00;76.60;;;6.57;60.74;95128.19;5028646;28;20195;-85
2021/04/17 07:12:27;;;;;;;22.50;16.80;;;7.00;76.70;;;6.65;60.45;95124.78;5036614;28;20311;-83
2021/04/17 07:14:54;;;;;;;23.52;16.67;;;7.10;76.80;;;6.77;60.35;95127.88;5020877;28;20193;-84
2021/04/17 07:17:23;;;;;;;22.63;15.35;;;7.20;76.80;;;6.91;60.49;95130.78;5019039;28;20220;-84
2021/04/17 07:19:56;;;;;;;18.95;15.15;;;7.30;76.90;;;7.03;60.37;95125.09;5031318;28;20289;-84
2021/04/17 07:22:29;;;;;;;19.20;14.45;;;7.40;77.00;;;7.18;59.88;95130.44;5038486;28;20577;-84
2021/04/17 07:25:06;;;;;;;19.55;15.20;;;7.40;77.00;;;7.26;59.88;95119.19;5031609;28;20204;-83
2021/04/17 07:27:53;;;;;;;22.23;17.35;;;7.60;76.80;;;7.25;59.42;95112.34;5031792;28;20706;-84
2021/04/17 07:30:22;;;;;;;19.92;16.50;;;7.70;77.20;;;7.30;59.36;95120.50;5016767;28;20847;-83
2021/04/17 07:33:14;;;;;;;22.10;15.98;;;7.70;76.20;;;7.30;59.19;95115.28;5035211;28;20273;-83
2021/04/17 07:35:51;;;;;;;22.15;16.65;;;7.80;76.90;;;7.29;58.96;95118.88;5036323;28;20300;-84
2021/04/17 07:38:33;;;;;;;22.83;16.67;;;7.80;75.80;;;7.27;58.95;95118.22;5032872;28;20338;-85
2021/04/17 07:41:12;;;;;;;20.67;16.35;;;7.80;75.70;;;7.29;59.39;95118.88;5033303;28;20563;-85
2021/04/17 07:43:58;;;;;;;18.42;15.13;;;7.90;75.50;;;7.28;59.39;95113.81;5032078;28;20220;-85
2021/04/17 07:46:31;;;;;;;21.02;16.13;;;7.90;75.60;;;7.35;59.00;95118.19;5031480;28;20228;-85
2021/04/17 07:49:18;;;;;;;20.90;16.42;;;7.90;75.70;;;7.41;58.90;95123.72;5027565;28;20276;-84
2021/04/17 07:52:11;;;;;;;20.58;16.65;;;7.90;75.40;;;7.42;58.54;95117.53;5032352;28;20232;-84
2021/04/17 07:55:00;;;;;;;19.98;16.27;;;8.00;75.40;;;7.46;58.62;95119.63;5035017;28;20188;-84
2021/04/17 07:57:37;;;;;;;23.05;18.17;;;8.00;75.40;;;7.48;57.90;95115.06;5015339;28;20717;-85
2021/04/17 08:00:10;;;;;;;24.48;17.50;;;8.10;75.10;;;7.49;57.69;95116.69;5015500;28;20690;-84
2021/04/17 08:02:42;;;;;;;20.33;16.48;;;8.10;75.00;;;7.50;57.83;95120.91;5031521;28;20296;-85
2021/04/17 08:05:11;;;;;;;23.42;17.63;;;8.10;75.00;;;7.47;57.68;95116.06;5028390;28;20222;-85
2021/04/17 08:07:40;;;;;;;25.17;17.60;;;8.10;74.70;;;7.46;57.58;95122.25;5048178;28;20215;-85
2021/04/17 08:10:11;;;;;;;23.33;17.15;;;8.10;74.60;;;7.41;57.77;95128.94;5034903;28;20204;-84
2021/04/17 08:12:41;;;;;;;19.92;15.40;;;8.10;74.60;;;7.36;57.75;95122.44;5051823;28;20227;-84
2021/04/17 08:15:17;;;;;;;21.65;16.65;;;8.10;74.60;;;7.36;57.95;95121.59;5049052;28;20212;-85
2021/04/17 08:17:46;;;;;;;21.65;16.50;;;8.00;74.50;;;7.39;58.15;95121.28;5020317;28;20224;-84
2021/04/17 08:20:17;;;;;;;19.75;14.73;;;8.10;74.60;;;7.47;57.99;95123.06;5015481;28;20279;-85
2021/04/17 08:22:48;;;;;;;18.90;15.40;;;8.10;74.60;;;7.49;58.13;95116.69;5043761;28;20686;-85
2021/04/17 08:25:20;;;;;;;22.45;18.17;;;8.10;74.60;;;7.48;57.31;95119.47;5031510;28;20240;-85
2021/04/17 08:27:49;;;;;;;21.73;16.83;;;8.10;74.60;;;7.46;57.30;95114.44;5033504;28;20709;-85
2021/04/17 08:30:24;;;;;;;20.52;15.40;;;8.10;74.60;;;7.47;57.47;95117.84;5018562;28;20197;-85
2021/04/17 08:32:52;;;;;;;21.48;16.45;;;8.10;74.60;;;7.44;57.72;95113.75;5019732;28;20212;-84
2021/04/17 08:35:23;;;;;;;21.52;17.15;;;8.10;74.60;;;7.44;57.23;95115.56;5035370;28;20634;-85
2021/04/17 08:37:54;;;;;;;21.27;17.23;;;8.10;74.60;;;7.42;57.15;95114.91;5023139;28;20228;-86
2021/04/17 08:40:35;;;;;;;21.63;16.48;;;8.10;74.40;;;7.43;57.10;95108.72;5036214;28;20205;-85
2021/04/17 08:43:08;;;;;;;20.88;16.00;;;8.10;74.60;;;7.45;57.29;95104.16;5025581;28;20242;-85
2021/04/17 08:45:35;;;;;;;21.35;16.20;;;8.10;74.20;;;7.51;57.18;95106.09;5022967;28;20439;-85
2021/04/17 08:48:04;;;;;;;19.27;15.27;;;8.10;74.60;;;7.62;57.65;95105.72;5018900;28;20217;-85
2021/04/17 08:50:37;;;;;;;20.30;15.73;;;8.10;74.60;;;7.75;57.04;95104.38;5021073;28;20214;-85
2021/04/17 08:53:11;;;;;;;24.23;16.38;;;8.20;74.60;;;7.83;56.51;95093.91;5038010;28;20216;-85
2021/04/17 08:55:38;;;;;;;18.65;15.02;;;8.30;74.70;;;7.94;56.62;95090.09;5034276;28;20201;-85
2021/04/17 08:58:15;;;;;;;18.95;15.45;;;8.30;74.70;;;8.04;56.35;95092.50;5035153;28;20224;-85
2021/04/17 09:01:04;;;;;;;20.50;15.95;;;8.40;74.80;;;8.09;56.11;95091.00;5039853;28;20271;-86
2021/04/17 09:03:45;;;;;;;22.75;16.48;;;8.40;74.30;;;8.19;55.81;95088.19;5038008;28;20698;-86
2021/04/17 09:06:23;;;;;;;19.40;15.52;;;8.50;73.80;;;8.25;55.67;95087.50;5053325;28;20196;-86
2021/04/17 09:09:14;;;;;;;21.30;16.52;;;8.60;73.60;;;8.34;55.74;95085.63;5054535;28;20638;-85
2021/04/17 09:11:42;;;;;;;18.55;15.07;;;8.70;73.80;;;8.44;54.87;95094.03;5054636;28;20386;-85
2021/04/17 09:14:36;;;;;;;18.17;14.90;;;8.80;74.60;;;8.58;55.37;95091.69;5020825;28;20192;-86
2021/04/17 09:17:36;;;;;;;18.20;13.80;;;8.90;73.60;;;8.63;54.58;95084.97;5041582;28;20255;-85
2021/04/17 09:20:30;;;;;;;16.38;12.55;;;8.90;73.10;;;8.82;54.77;95085.47;5034745;28;20299;-86
2021/04/17 09:22:58;;;;;;;18.95;13.70;;;9.10;74.00;;;8.97;54.10;95086.31;5032481;28;20243;-86
2021/04/17 09:25:51;;;;;;;17.20;13.77;;;9.10;73.30;;;9.12;54.34;95083.72;5017326;28;20235;-86
2021/04/17 09:28:18;;;;;;;15.95;13.77;;;9.30;73.00;;;9.20;53.59;95076.78;5015774;28;20365;-85
2021/04/17 09:30:49;;;;;;;18.35;13.30;;;9.40;72.70;;;9.30;53.92;95077.31;5033158;28;20235;-86
2021/04/17 09:33:16;;;;;;;17.60;12.25;;;9.50;72.60;;;9.44;54.40;95084.38;5034323;28;20587;-86
2021/04/17 09:35:43;;;;;;;17.75;14.18;;;9.60;73.10;;;9.50;52.41;95077.63;5034416;28;20250;-86
2021/04/17 09:38:16;;;;;;;17.35;14.05;;;9.70;72.30;;;9.49;52.70;95078.59;5034275;28;20267;-85
2021/04/17 09:40:55;;;;;;;17.42;14.15;;;9.70;71.90;;;9.50;52.32;95076.81;5004849;28;20243;-85
2021/04/17 09:43:27;;;;;;;17.48;13.50;;;9.80;71.40;;;9.54;51.82;95083.31;5033748;28;20701;-85
2021/04/17 09:46:03;;;;;;;17.83;13.77;;;9.90;71.10;;;9.63;52.89;95081.41;5017780;28;20287;-84
2021/04/17 09:48:42;;;;;;;16.40;13.38;;;9.90;71.60;;;9.63;52.12;95076.16;5033402;28;20278;-86
2021/04/17 09:51:27;;;;;;;16.63;13.07;;;10.00;69.70;;;9.64;51.71;95083.03;5021871;28;20208;-85
2021/04/17 09:54:02;;;;;;;16.65;13.00;;;10.00;69.60;;;9.64;51.34;95077.78;5005118;28;20228;-86
2021/04/17 09:56:41;;;;;;;16.30;13.35;;;10.10;69.20;;;9.63;50.58;95078.78;5016995;28;20251;-86
2021/04/17 09:59:12;;;;;;;16.48;13.20;;;10.20;69.10;;;9.58;50.42;95077.53;5017665;28;20201;-86
2021/04/17 10:01:52;;;;;;;17.15;13.35;;;10.10;68.60;;;9.53;50.05;95072.03;5033800;28;20717;-85
2021/04/17 10:04:20;;;;;;;16.20;13.27;;;10.10;68.40;;;9.46;50.40;95065.88;5033701;28;20193;-85
2021/04/17 10:06:58;;;;;;;19.85;14.25;;;10.10;68.40;;;9.33;49.43;95073.56;5030893;28;20228;-86
2021/04/17 10:09:25;;;;;;;17.23;14.13;;;10.00;67.50;;;9.24;50.27;95078.03;5044367;28;20571;-85
2021/04/17 10:12:05;;;;;;;18.02;14.02;;;10.00;67.80;;;9.20;50.97;95074.97;5016778;28;20252;-86
2021/04/17 10:14:33;;;;;;;17.15;13.57;;;9.90;69.60;;;9.16;50.94;95071.09;5016757;28;20279;-86
2021/04/17 10:17:00;;;;;;;19.52;14.30;;;9.80;69.70;;;9.18;51.05;95076.13;5020291;28;20220;-86
2021/04/17 10:19:30;;;;;;;17.30;13.75;;;9.80;69.70;;;9.19;50.94;95075.97;5037248;28;20200;-86
2021/04/17 10:22:00;;;;;;;17.95;13.60;;;9.80;69.90;;;9.24;51.22;95070.19;5069088;28;20216;-84
2021/04/17 10:24:33;;;;;;;17.17;13.27;;;9.80;70.10;;;9.28;50.80;95079.31;5032806;28;20205;-85
2021/04/17 10:27:09;;;;;;;14.98;12.65;;;9.80;69.80;;;9.36;51.27;95066.16;5019785;28;20213;-86
2021/04/17 10:29:48;;;;;;;16.55;13.35;;;9.80;70.10;;;9.45;50.76;95070.28;5052350;28;20195;-83
2021/04/17 10:32:23;;;;;;;15.88;12.50;;;9.80;69.80;;;9.52;50.42;95061.72;5032535;28;20274;-85